Time;durP1;ratioP1;P1;durP2;ratioP2;P2;SDS_P1;SDS_P2;PMS_P1;PMS_P2;Temp;Humidity;BMP_temperature;BMP_pressure;BME280_temperature;BME280_humidity;BME280_pressure;Samples;Min_cycle;Max_cycle;Signal;HPM_P1;HPM_P2
2021/05/31 00:01:47;;;;;;;5.68;3.80;;;;;;;11.23;58.25;96815.13;5031284;28;20041;-68
2021/05/31 00:04:13;;;;;;;4.72;3.50;;;;;;;11.26;57.80;96815.63;5030146;28;20037;-68
2021/05/31 00:06:45;;;;;;;6.10;3.80;;;;;;;11.25;57.97;96820.28;5032011;28;20128;-68
2021/05/31 00:09:11;;;;;;;6.30;4.05;;;;;;;11.21;59.07;96817.34;5033598;28;20449;-68
2021/05/31 00:11:37;;;;;;;6.10;3.70;;;;;;;11.17;58.71;96813.66;5034385;28;20041;-68
2021/05/31 00:14:03;;;;;;;4.90;3.58;;;;;;;11.14;58.27;96819.72;5033722;28;20053;-68
2021/05/31 00:16:30;;;;;;;6.10;3.80;;;;;;;11.08;58.68;96810.06;5034045;28;20049;-68
2021/05/31 00:18:56;;;;;;;4.60;3.25;;;;;;;11.10;59.04;96818.72;5034141;28;20041;-68
2021/05/31 00:21:22;;;;;;;6.13;4.22;;;;;;;11.06;59.07;96809.53;5033512;28;20061;-67
2021/05/31 00:23:48;;;;;;;6.07;3.70;;;;;;;11.03;59.15;96807.47;5033904;28;20547;-68
2021/05/31 00:26:16;;;;;;;5.75;3.45;;;;;;;11.02;59.48;96808.56;5033317;28;20115;-67
2021/05/31 00:28:42;;;;;;;7.05;4.15;;;;;;;11.03;58.92;96812.91;5034011;28;20041;-68
2021/05/31 00:31:08;;;;;;;7.13;3.85;;;;;;;11.01;59.93;96800.69;5034147;28;20524;-68
2021/05/31 00:33:35;;;;;;;6.63;3.78;;;;;;;10.94;58.52;96806.59;5033844;28;20492;-68
2021/05/31 00:36:02;;;;;;;6.05;3.67;;;;;;;10.91;59.14;96804.47;5033161;28;20047;-68
2021/05/31 00:38:28;;;;;;;8.07;3.78;;;;;;;10.89;59.27;96803.97;5033675;28;20042;-67
2021/05/31 00:40:54;;;;;;;4.97;3.53;;;;;;;10.91;59.52;96812.63;5033705;28;20045;-68
2021/05/31 00:43:20;;;;;;;6.10;4.22;;;;;;;10.89;59.51;96806.69;5033176;28;20041;-68
2021/05/31 00:45:48;;;;;;;5.75;3.72;;;;;;;10.85;59.42;96808.44;5033550;28;20048;-68
2021/05/31 00:48:15;;;;;;;5.40;3.60;;;;;;;10.81;59.23;96804.72;5032896;28;20049;-68
2021/05/31 00:50:43;;;;;;;5.22;4.00;;;;;;;10.80;59.30;96803.09;5033359;28;20573;-68
2021/05/31 00:53:09;;;;;;;6.70;3.78;;;;;;;10.79;59.88;96804.22;5013205;28;20053;-67
2021/05/31 00:55:36;;;;;;;5.00;3.83;;;;;;;10.76;59.85;96807.56;5013608;28;20041;-68
2021/05/31 00:58:04;;;;;;;5.35;4.20;;;;;;;10.74;60.33;96807.84;5012925;28;20042;-68
2021/05/31 01:00:30;;;;;;;8.25;4.13;;;;;;;10.68;59.38;96807.16;5013980;28;20523;-67
2021/05/31 01:02:56;;;;;;;5.28;3.80;;;;;;;10.58;58.69;96796.50;5013648;28;20042;-67
2021/05/31 01:05:23;;;;;;;6.00;4.50;;;;;;;10.51;59.84;96804.31;5013034;28;20563;-67
2021/05/31 01:07:55;;;;;;;5.35;4.05;;;;;;;10.52;60.14;96795.00;5013226;28;20050;-67
2021/05/31 01:10:32;;;;;;;5.97;3.65;;;;;;;10.54;60.04;96795.50;5012843;28;20505;-67
2021/05/31 01:13:01;;;;;;;6.63;4.40;;;;;;;10.56;60.11;96787.03;5013335;28;20081;-68
2021/05/31 01:15:31;;;;;;;6.53;4.47;;;;;;;10.50;60.08;96796.44;5013066;28;20077;-67
2021/05/31 01:18:04;;;;;;;7.65;4.20;;;;;;;10.44;60.22;96790.31;5012411;28;20042;-67
2021/05/31 01:21:00;;;;;;;6.90;4.35;;;;;;;10.40;60.87;96792.03;5012713;28;20037;-67
2021/05/31 01:23:30;;;;;;;6.57;4.60;;;;;;;10.36;61.56;96793.75;5012986;28;20068;-67
2021/05/31 01:26:06;;;;;;;4.78;4.18;;;;;;;10.32;61.50;96787.28;5013195;28;20046;-67
2021/05/31 01:28:59;;;;;;;6.97;4.85;;;;;;;10.29;61.08;96785.19;5012911;28;20473;-67
2021/05/31 01:31:31;;;;;;;6.22;4.63;;;;;;;10.27;61.44;96784.69;5013259;28;20046;-67
2021/05/31 01:33:58;;;;;;;5.65;4.35;;;;;;;10.24;60.95;96783.38;5013049;28;20042;-67
2021/05/31 01:36:27;;;;;;;8.90;5.03;;;;;;;10.24;61.37;96779.88;5012299;28;20125;-67
2021/05/31 01:38:55;;;;;;;7.45;5.18;;;;;;;10.22;61.29;96779.31;5013010;28;20408;-67
2021/05/31 01:41:22;;;;;;;8.02;5.32;;;;;;;10.19;60.84;96773.38;5012266;28;20053;-67
2021/05/31 01:43:49;;;;;;;5.95;4.28;;;;;;;10.15;61.37;96772.38;5012899;28;20048;-67
2021/05/31 01:46:19;;;;;;;6.32;4.72;;;;;;;10.11;61.41;96768.66;5012368;28;20077;-66
2021/05/31 01:48:47;;;;;;;6.78;4.88;;;;;;;10.07;61.28;96764.91;5012595;28;20056;-67
2021/05/31 01:51:15;;;;;;;7.93;5.28;;;;;;;10.02;61.57;96767.75;5015967;28;20492;-67
2021/05/31 01:53:42;;;;;;;7.28;5.18;;;;;;;10.00;61.32;96769.16;5032283;28;20041;-67
2021/05/31 01:56:10;;;;;;;6.47;4.82;;;;;;;9.95;61.48;96767.34;5031919;28;20064;-67
2021/05/31 01:58:38;;;;;;;7.88;5.32;;;;;;;9.92;61.13;96762.53;5032437;28;20045;-67
2021/05/31 02:01:05;;;;;;;7.90;5.57;;;;;;;9.92;61.61;96751.66;5032574;28;20123;-67
2021/05/31 02:03:32;;;;;;;7.53;4.95;;;;;;;9.92;62.15;96751.66;5032348;28;20575;-67
2021/05/31 02:05:58;;;;;;;8.32;5.38;;;;;;;9.92;62.45;96752.47;5032054;28;20041;-67
2021/05/31 02:08:24;;;;;;;9.68;5.78;;;;;;;9.92;62.84;96751.66;5031495;28;20045;-67
2021/05/31 02:10:50;;;;;;;8.07;5.82;;;;;;;9.90;63.29;96751.13;5031972;28;20488;-67
2021/05/31 02:13:16;;;;;;;7.85;5.40;;;;;;;9.88;63.01;96748.72;5031548;28;20041;-67
2021/05/31 02:15:50;;;;;;;8.50;5.80;;;;;;;9.87;62.74;96743.59;5032154;28;20053;-69
2021/05/31 02:18:23;;;;;;;8.20;5.65;;;;;;;9.86;63.09;96741.97;5031293;28;20053;-69
2021/05/31 02:20:53;;;;;;;7.90;5.50;;;;;;;9.82;63.52;96749.16;5031991;28;20053;-69
2021/05/31 02:23:20;;;;;;;6.95;5.30;;;;;;;9.84;63.66;96738.75;5031354;28;20056;-69
2021/05/31 02:25:48;;;;;;;8.40;5.70;;;;;;;9.85;63.05;96740.38;5031838;28;20092;-66
2021/05/31 02:28:15;;;;;;;8.25;5.40;;;;;;;9.79;63.35;96736.94;5029958;28;20056;-69
2021/05/31 02:30:41;;;;;;;7.90;5.38;;;;;;;9.75;64.19;96741.38;5034024;28;20045;-66
2021/05/31 02:33:07;;;;;;;9.30;5.90;;;;;;;9.74;63.77;96744.41;5051086;28;20055;-69
2021/05/31 02:35:35;;;;;;;7.88;5.45;;;;;;;9.73;63.91;96740.06;5051560;28;20063;-66
2021/05/31 02:38:03;;;;;;;8.27;5.70;;;;;;;9.67;63.29;96734.75;5051669;28;20049;-69
2021/05/31 02:40:30;;;;;;;8.32;5.93;;;;;;;9.64;63.40;96740.78;5051134;28;20041;-66
2021/05/31 02:42:58;;;;;;;8.88;5.43;;;;;;;9.65;63.17;96731.50;5051648;28;20048;-69
2021/05/31 02:45:26;;;;;;;9.25;5.90;;;;;;;9.61;62.76;96735.97;5051168;28;20049;-69
2021/05/31 02:47:53;;;;;;;9.18;6.15;;;;;;;9.56;63.67;96736.06;5051370;28;20045;-67
2021/05/31 02:50:19;;;;;;;7.68;5.45;;;;;;;9.55;63.05;96723.56;5050388;28;20079;-67
2021/05/31 02:52:45;;;;;;;9.55;5.72;;;;;;;9.52;63.54;96726.88;5051063;28;20037;-67
2021/05/31 02:55:15;;;;;;;8.20;5.72;;;;;;;9.49;63.38;96726.69;5050714;28;20045;-67
2021/05/31 02:57:42;;;;;;;7.82;5.18;;;;;;;9.46;63.71;96733.53;5051204;28;20416;-67
2021/05/31 03:00:10;;;;;;;7.90;5.57;;;;;;;9.41;64.26;96730.91;5035934;28;20103;-67
2021/05/31 03:02:36;;;;;;;9.60;5.57;;;;;;;9.35;64.98;96740.28;5051049;28;20047;-67
2021/05/31 03:05:04;;;;;;;7.97;5.57;;;;;;;9.34;64.42;96727.75;5050663;28;20037;-67
2021/05/31 03:07:30;;;;;;;8.63;5.50;;;;;;;9.31;64.39;96720.22;5050762;28;20049;-67
2021/05/31 03:09:56;;;;;;;8.25;5.80;;;;;;;9.28;65.45;96728.97;5051013;28;20388;-67
2021/05/31 03:12:24;;;;;;;7.95;5.80;;;;;;;9.27;64.78;96719.22;5050813;28;20045;-67
2021/05/31 03:14:51;;;;;;;7.95;5.88;;;;;;;9.17;64.38;96719.41;5051280;28;20053;-67
2021/05/31 03:17:17;;;;;;;8.82;6.00;;;;;;;9.13;65.10;96724.63;5050377;28;20128;-67
2021/05/31 03:19:44;;;;;;;8.15;5.35;;;;;;;9.12;65.57;96723.81;5050805;28;20644;-67
2021/05/31 03:22:10;;;;;;;8.80;6.00;;;;;;;9.13;64.97;96725.44;5050201;28;20045;-67
2021/05/31 03:24:36;;;;;;;9.55;6.05;;;;;;;9.10;65.23;96726.03;5050695;28;20052;-67
2021/05/31 03:27:02;;;;;;;10.13;5.90;;;;;;;9.09;65.64;96729.88;5050416;28;20127;-68
2021/05/31 03:29:30;;;;;;;10.02;5.93;;;;;;;9.07;66.08;96732.06;5041143;28;20041;-67
2021/05/31 03:31:56;;;;;;;7.95;6.03;;;;;;;9.09;65.17;96731.78;5046093;28;20049;-67
2021/05/31 03:34:22;;;;;;;8.45;6.00;;;;;;;9.09;66.07;96735.28;5050325;28;20102;-67
2021/05/31 03:36:48;;;;;;;14.05;6.85;;;;;;;9.06;66.18;96730.44;5050574;28;20045;-66
2021/05/31 03:39:14;;;;;;;8.98;6.05;;;;;;;9.08;66.04;96738.28;5050249;28;20053;-67
2021/05/31 03:41:41;;;;;;;9.48;5.88;;;;;;;9.09;65.61;96735.28;5052168;28;20073;-67
2021/05/31 03:44:07;;;;;;;10.73;6.18;;;;;;;9.11;65.46;96733.06;5054319;28;20102;-67
2021/05/31 03:46:34;;;;;;;8.60;5.93;;;;;;;9.11;65.76;96733.06;5054766;28;20114;-67
2021/05/31 03:49:00;;;;;;;8.30;5.47;;;;;;;9.12;65.30;96739.31;5054755;28;20049;-67
2021/05/31 03:51:26;;;;;;;9.98;6.00;;;;;;;9.10;65.67;96738.81;5053892;28;20587;-67
2021/05/31 03:53:52;;;;;;;11.45;6.35;;;;;;;9.09;65.73;96738.00;5054702;28;20087;-67
2021/05/31 03:56:18;;;;;;;8.77;6.28;;;;;;;9.09;65.33;96742.66;5054021;28;20048;-67
2021/05/31 03:58:46;;;;;;;10.73;5.70;;;;;;;9.08;65.66;96741.84;5050799;28;20103;-67
2021/05/31 04:01:13;;;;;;;8.88;5.97;;;;;;;9.08;65.72;96736.41;5043148;28;20526;-67
2021/05/31 04:03:41;;;;;;;11.25;6.70;;;;;;;9.09;65.82;96740.72;5054423;28;20073;-68
2021/05/31 04:06:16;;;;;;;11.07;6.25;;;;;;;9.08;65.93;96730.97;5053888;28;20049;-68
2021/05/31 04:11:36;;;;;;;9.73;6.40;;;;;;;9.10;66.35;96736.09;5054043;28;20511;-67
2021/05/31 04:14:04;;;;;;;9.15;6.18;;;;;;;9.13;66.54;96738.19;5054096;28;20043;-68
2021/05/31 04:16:30;;;;;;;10.93;6.70;;;;;;;9.15;66.39;96736.00;5054273;28;20049;-67
2021/05/31 04:18:58;;;;;;;12.73;6.85;;;;;;;9.21;66.91;96734.00;5054110;28;20511;-67
2021/05/31 04:21:24;;;;;;;9.05;6.60;;;;;;;9.25;66.83;96737.75;5053872;28;20488;-67
2021/05/31 04:23:50;;;;;;;9.55;6.50;;;;;;;9.27;67.04;96730.88;5053988;28;20040;-68
2021/05/31 04:26:16;;;;;;;13.20;6.60;;;;;;;9.33;66.59;96731.59;5053535;28;20151;-67
2021/05/31 04:28:42;;;;;;;8.32;6.13;;;;;;;9.36;67.18;96725.56;5050413;28;20053;-67
2021/05/31 04:31:08;;;;;;;11.75;6.38;;;;;;;9.41;66.60;96725.47;5042091;28;20049;-67
2021/05/31 04:33:34;;;;;;;9.93;6.25;;;;;;;9.47;66.33;96723.47;5053819;28;20045;-67
2021/05/31 04:36:02;;;;;;;8.82;6.55;;;;;;;9.55;66.95;96725.47;5053734;28;20075;-67
2021/05/31 04:38:28;;;;;;;10.75;6.28;;;;;;;9.62;66.90;96732.13;5053760;28;20037;-67
2021/05/31 04:40:54;;;;;;;12.55;7.78;;;;;;;9.64;65.81;96735.34;5053980;28;20041;-67
2021/05/31 04:43:20;;;;;;;14.23;7.13;;;;;;;9.67;66.11;96736.66;5053546;28;20044;-67
2021/05/31 04:45:47;;;;;;;14.65;8.10;;;;;;;9.71;65.69;96740.38;5053991;28;20041;-67
2021/05/31 04:48:13;;;;;;;14.38;7.88;;;;;;;9.76;65.31;96734.00;5053412;28;20051;-67
2021/05/31 04:50:39;;;;;;;14.27;7.43;;;;;;;9.79;64.73;96736.16;5053545;28;20453;-67
2021/05/31 04:53:06;;;;;;;9.93;7.13;;;;;;;9.77;64.68;96728.28;5052862;28;20135;-67
2021/05/31 04:55:33;;;;;;;13.95;7.63;;;;;;;9.82;64.79;96732.84;5053582;28;20137;-66
2021/05/31 04:58:01;;;;;;;15.18;7.55;;;;;;;9.93;65.33;96742.38;5053646;28;20095;-66
2021/05/31 05:00:27;;;;;;;10.60;6.47;;;;;;;9.99;65.44;96737.63;5038467;28;20045;-67
2021/05/31 05:02:53;;;;;;;10.90;6.40;;;;;;;9.97;63.64;96740.69;5053122;28;20059;-66
2021/05/31 05:05:19;;;;;;;8.20;5.88;;;;;;;10.03;64.10;96735.94;5052756;28;20044;-67
2021/05/31 05:07:46;;;;;;;10.15;6.05;;;;;;;10.05;63.97;96731.78;5053025;28;20049;-66
2021/05/31 05:10:15;;;;;;;12.00;6.18;;;;;;;10.13;64.68;96733.00;5052624;28;20049;-66
2021/05/31 05:12:42;;;;;;;9.52;6.45;;;;;;;10.17;64.08;96737.50;5052757;28;20048;-67
2021/05/31 05:15:09;;;;;;;8.98;6.13;;;;;;;10.20;63.15;96736.88;5052233;28;20049;-67
2021/05/31 05:17:35;;;;;;;8.43;5.82;;;;;;;10.24;63.37;96730.88;5053042;28;20037;-71
2021/05/31 05:20:01;;;;;;;8.60;5.85;;;;;;;10.26;63.20;96731.38;5053128;28;20045;-71
2021/05/31 05:22:27;;;;;;;9.32;6.13;;;;;;;10.32;63.82;96732.84;5052807;28;20047;-71
2021/05/31 05:24:53;;;;;;;7.82;6.03;;;;;;;10.36;63.75;96722.97;5053020;28;20049;-71
2021/05/31 05:27:20;;;;;;;11.00;6.75;;;;;;;10.39;62.78;96727.81;5052127;28;20045;-69
2021/05/31 05:29:46;;;;;;;9.27;6.50;;;;;;;10.44;63.19;96735.88;5040728;28;20041;-68
2021/05/31 05:32:13;;;;;;;12.10;6.28;;;;;;;10.50;63.86;96729.19;5049818;28;20076;-70
2021/05/31 05:34:39;;;;;;;8.05;6.03;;;;;;;10.55;63.71;96736.44;5049159;28;20053;-69
2021/05/31 05:37:07;;;;;;;13.05;6.82;;;;;;;10.60;63.71;96734.38;5031790;28;20172;-69
2021/05/31 05:42:31;;;;;;;9.93;6.13;;;;;;;10.70;63.90;96728.69;5032121;28;20075;-69
2021/05/31 05:45:19;;;;;;;11.40;5.97;;;;;;;10.77;63.31;96732.91;5032549;28;20042;-70
2021/05/31 05:47:46;;;;;;;7.65;5.78;;;;;;;10.86;62.92;96731.06;5032673;28;20453;-69
2021/05/31 05:50:16;;;;;;;10.35;6.53;;;;;;;10.92;62.13;96735.25;5032094;28;20075;-69
2021/05/31 05:52:43;;;;;;;8.73;6.20;;;;;;;10.95;62.20;96740.88;5032532;28;20041;-69
2021/05/31 05:55:11;;;;;;;11.77;6.35;;;;;;;10.98;62.12;96734.81;5031608;28;20049;-69
2021/05/31 05:57:38;;;;;;;11.07;5.93;;;;;;;11.00;62.59;96737.22;5031772;28;20125;-69
2021/05/31 06:00:13;;;;;;;11.20;6.60;;;;;;;11.08;63.08;96741.94;5031378;28;20057;-69
2021/05/31 06:02:39;;;;;;;8.88;5.97;;;;;;;11.16;63.17;96743.88;5012628;28;20059;-69
2021/05/31 06:05:07;;;;;;;8.55;5.95;;;;;;;11.24;61.83;96743.13;5011841;28;20498;-69
2021/05/31 06:07:33;;;;;;;9.32;6.00;;;;;;;11.31;60.58;96742.69;5012614;28;20049;-69
2021/05/31 06:10:00;;;;;;;7.88;5.63;;;;;;;11.35;60.65;96738.22;5012556;28;20386;-69
2021/05/31 06:12:26;;;;;;;9.57;5.75;;;;;;;11.37;59.85;96740.63;5012196;28;20130;-69
2021/05/31 06:14:52;;;;;;;10.02;6.32;;;;;;;11.39;59.06;96741.13;5012356;28;20054;-69
2021/05/31 06:17:19;;;;;;;10.93;6.78;;;;;;;11.42;59.57;96732.31;5012066;28;20658;-69
2021/05/31 06:19:45;;;;;;;8.70;5.68;;;;;;;11.45;58.50;96728.97;5012525;28;20042;-69
2021/05/31 06:22:11;;;;;;;9.00;5.38;;;;;;;11.55;59.36;96736.06;5011863;28;20132;-69
2021/05/31 06:24:37;;;;;;;7.70;5.72;;;;;;;11.65;59.47;96733.06;5012270;28;20050;-69
2021/05/31 06:27:04;;;;;;;8.73;5.13;;;;;;;11.71;59.27;96732.59;5011786;28;20042;-71
2021/05/31 06:29:30;;;;;;;8.55;5.60;;;;;;;11.76;58.97;96737.91;5021060;28;20048;-69
2021/05/31 06:31:56;;;;;;;7.30;5.22;;;;;;;11.83;58.21;96732.00;5047267;28;20040;-69
2021/05/31 06:34:24;;;;;;;8.07;5.70;;;;;;;11.90;58.79;96728.81;5051261;28;20053;-69
2021/05/31 06:36:54;;;;;;;8.52;5.78;;;;;;;12.02;58.58;96739.94;5051886;28;20044;-69
2021/05/31 06:39:20;;;;;;;9.85;6.22;;;;;;;12.01;57.70;96733.69;5051184;28;20443;-69
2021/05/31 06:41:46;;;;;;;7.50;5.82;;;;;;;11.96;57.54;96730.31;5051666;28;20496;-69
2021/05/31 06:44:12;;;;;;;9.55;6.13;;;;;;;12.03;57.87;96730.63;5051068;28;20407;-69
2021/05/31 06:46:38;;;;;;;12.23;8.77;;;;;;;12.09;58.06;96726.63;5051744;28;20037;-69
2021/05/31 06:49:05;;;;;;;13.65;9.02;;;;;;;12.16;57.87;96729.72;5051182;28;20044;-69
2021/05/31 06:51:32;;;;;;;8.63;6.18;;;;;;;12.27;57.59;96731.00;5051297;28;20076;-70
2021/05/31 06:53:58;;;;;;;8.73;6.20;;;;;;;12.33;57.16;96720.72;5051468;28;20040;-69
2021/05/31 06:56:24;;;;;;;9.43;6.32;;;;;;;12.39;57.71;96724.91;5050943;28;20156;-69
2021/05/31 06:58:50;;;;;;;9.38;6.65;;;;;;;12.50;57.46;96728.13;5047188;28;20095;-71
2021/05/31 07:01:16;;;;;;;9.75;6.45;;;;;;;12.62;57.58;96730.19;5040824;28;20048;-69
2021/05/31 07:03:43;;;;;;;11.50;6.90;;;;;;;12.67;56.81;96727.31;5051115;28;20056;-70
2021/05/31 07:06:09;;;;;;;12.90;6.68;;;;;;;12.80;57.36;96724.41;5050621;28;20041;-69
2021/05/31 07:08:37;;;;;;;9.95;6.85;;;;;;;12.89;57.47;96723.59;5051135;28;20412;-70
2021/05/31 07:11:09;;;;;;;8.93;6.22;;;;;;;12.99;57.46;96723.25;5050910;28;20041;-69
2021/05/31 07:13:35;;;;;;;12.07;7.30;;;;;;;13.05;56.68;96727.44;5051244;28;20063;-69
2021/05/31 07:16:01;;;;;;;8.50;6.43;;;;;;;13.13;56.68;96723.88;5050539;28;20747;-69
2021/05/31 07:18:27;;;;;;;11.85;6.50;;;;;;;13.25;58.48;96731.44;5050893;28;20068;-69
2021/05/31 07:20:53;;;;;;;8.73;6.32;;;;;;;13.38;56.77;96726.91;5051188;28;20037;-69
2021/05/31 07:23:19;;;;;;;9.70;6.20;;;;;;;13.51;55.61;96723.16;5050714;28;20044;-70
2021/05/31 07:25:47;;;;;;;9.90;6.53;;;;;;;13.62;55.46;96724.38;5051220;28;20045;-70
2021/05/31 07:28:13;;;;;;;10.60;6.55;;;;;;;13.74;55.77;96721.78;5050593;28;20053;-69
2021/05/31 07:30:39;;;;;;;8.18;6.20;;;;;;;13.86;55.26;96725.75;5036340;28;20175;-69
2021/05/31 07:33:09;;;;;;;8.70;6.35;;;;;;;13.94;56.62;96719.41;5050632;28;20052;-69
2021/05/31 07:35:36;;;;;;;8.65;5.82;;;;;;;14.04;54.34;96728.06;5051131;28;20045;-69
2021/05/31 07:38:02;;;;;;;8.52;6.10;;;;;;;14.12;54.01;96720.91;5050718;28;20044;-69
2021/05/31 07:40:28;;;;;;;7.70;5.47;;;;;;;14.21;53.70;96724.41;5050753;28;20047;-69
2021/05/31 07:42:55;;;;;;;8.00;5.70;;;;;;;14.33;54.19;96724.47;5050951;28;20041;-69
2021/05/31 07:45:21;;;;;;;8.93;6.28;;;;;;;14.48;52.73;96727.81;5050551;28;20735;-71
2021/05/31 07:47:48;;;;;;;8.52;6.43;;;;;;;14.60;52.54;96719.63;5051156;28;20052;-71
2021/05/31 07:50:15;;;;;;;9.18;5.78;;;;;;;14.64;52.91;96726.06;5050219;28;20055;-71
2021/05/31 07:52:41;;;;;;;6.95;5.63;;;;;;;14.70;53.90;96723.91;5050649;28;20064;-71
2021/05/31 07:55:11;;;;;;;10.60;5.80;;;;;;;14.78;52.90;96723.84;5050333;28;20129;-69
2021/05/31 07:57:39;;;;;;;7.28;5.43;;;;;;;14.97;52.55;96728.03;5051046;28;20385;-71
2021/05/31 08:00:10;;;;;;;8.80;5.50;;;;;;;15.04;51.55;96722.81;5035961;28;20069;-71
2021/05/31 08:02:37;;;;;;;8.68;5.63;;;;;;;15.16;49.99;96724.78;5011232;28;20050;-69
2021/05/31 08:05:04;;;;;;;9.70;6.50;;;;;;;15.30;50.17;96726.09;5010820;28;20456;-70
2021/05/31 08:07:30;;;;;;;7.85;5.82;;;;;;;15.87;47.93;96727.22;5011251;28;20049;-70
2021/05/31 08:09:56;;;;;;;7.85;5.80;;;;;;;17.23;45.81;96721.06;5011067;28;20125;-69
2021/05/31 08:12:22;;;;;;;13.45;5.53;;;;;;;18.03;43.42;96724.69;5010427;28;20042;-69
2021/05/31 08:14:48;;;;;;;8.73;5.45;;;;;;;19.11;42.42;96718.44;5010770;28;20057;-70
2021/05/31 08:17:16;;;;;;;6.88;5.35;;;;;;;20.34;40.19;96717.38;5010635;28;20046;-70
2021/05/31 08:19:42;;;;;;;5.80;4.63;;;;;;;21.32;36.14;96710.81;5010815;28;20041;-70
2021/05/31 08:22:08;;;;;;;7.88;4.65;;;;;;;22.21;35.13;96723.91;5010336;28;20132;-70
2021/05/31 08:24:35;;;;;;;6.90;5.78;;;;;;;22.71;33.12;96713.13;5011158;28;20437;-70
2021/05/31 08:27:01;;;;;;;7.63;5.13;;;;;;;23.11;33.28;96712.94;5011408;28;20054;-70
2021/05/31 08:29:27;;;;;;;6.40;4.72;;;;;;;23.76;32.80;96718.72;5022783;28;20450;-70
2021/05/31 08:31:53;;;;;;;8.15;4.70;;;;;;;24.17;31.25;96717.13;5049024;28;20037;-70
2021/05/31 08:34:23;;;;;;;5.40;4.45;;;;;;;24.50;30.71;96717.91;5053441;28;20094;-70
2021/05/31 08:36:49;;;;;;;5.13;4.10;;;;;;;24.91;29.49;96704.28;5053273;28;20516;-71
2021/05/31 08:39:15;;;;;;;5.18;4.30;;;;;;;24.89;28.27;96717.00;5053218;28;20052;-71
2021/05/31 08:41:42;;;;;;;4.70;4.03;;;;;;;25.06;29.61;96705.06;5053787;28;20052;-70
2021/05/31 08:44:08;;;;;;;5.72;4.53;;;;;;;25.20;28.33;96710.53;5053173;28;20053;-71
2021/05/31 08:46:35;;;;;;;5.03;4.25;;;;;;;25.04;29.08;96709.41;5053838;28;20052;-70
2021/05/31 08:49:02;;;;;;;6.70;3.95;;;;;;;25.36;27.92;96712.06;5053564;28;20045;-70
2021/05/31 08:51:29;;;;;;;5.97;4.05;;;;;;;25.80;28.58;96702.28;5052793;28;20056;-71
2021/05/31 08:53:56;;;;;;;4.90;4.00;;;;;;;24.70;27.15;96721.84;5053502;28;20052;-70
2021/05/31 08:56:23;;;;;;;6.28;4.50;;;;;;;23.47;28.95;96721.38;5053036;28;20052;-71
2021/05/31 08:58:49;;;;;;;4.88;3.55;;;;;;;23.21;29.55;96705.03;5049300;28;20073;-70
2021/05/31 09:01:15;;;;;;;5.30;3.58;;;;;;;23.71;31.82;96702.41;5042524;28;20134;-70
2021/05/31 09:03:41;;;;;;;4.55;3.20;;;;;;;23.71;29.50;96711.56;5053171;28;20518;-70
2021/05/31 09:06:09;;;;;;;5.47;3.88;;;;;;;22.72;29.98;96711.97;5052858;28;20455;-70
2021/05/31 09:08:38;;;;;;;4.43;3.70;;;;;;;21.78;31.18;96701.34;5053357;28;20069;-70
2021/05/31 09:11:06;;;;;;;5.65;3.60;;;;;;;20.89;33.05;96703.16;5052844;28;20139;-70
2021/05/31 09:13:34;;;;;;;8.70;5.78;;;;;;;20.39;34.46;96703.25;5053216;28;20102;-70
2021/05/31 09:16:09;;;;;;;7.18;3.80;;;;;;;20.41;35.94;96700.09;5053331;28;20045;-71
2021/05/31 09:18:37;;;;;;;5.63;3.10;;;;;;;20.40;33.60;96698.50;5053098;28;20712;-70
2021/05/31 09:21:13;;;;;;;5.03;3.38;;;;;;;20.42;33.28;96696.97;5052358;28;20538;-71
2021/05/31 09:23:41;;;;;;;5.43;2.50;;;;;;;20.31;32.59;96707.88;5053219;28;20045;-70
2021/05/31 09:26:07;;;;;;;4.13;3.53;;;;;;;20.22;35.84;96714.84;5052726;28;20053;-70
2021/05/31 09:28:34;;;;;;;4.95;3.38;;;;;;;20.21;36.38;96707.72;5050836;28;20040;-70
2021/05/31 09:31:00;;;;;;;3.90;3.50;;;;;;;20.12;34.75;96715.47;5040267;28;20041;-69
2021/05/31 09:33:26;;;;;;;4.50;3.65;;;;;;;20.01;34.87;96705.06;5052125;28;20103;-70
2021/05/31 09:35:52;;;;;;;3.83;3.15;;;;;;;19.90;34.92;96697.75;5052802;28;20454;-69
2021/05/31 09:38:19;;;;;;;7.35;4.85;;;;;;;19.88;36.14;96711.94;5051983;28;20056;-70
2021/05/31 09:40:54;;;;;;;4.10;3.45;;;;;;;19.95;36.95;96709.31;5052161;28;20041;-69
2021/05/31 09:43:22;;;;;;;5.43;3.03;;;;;;;20.03;35.23;96702.69;5052339;28;20048;-70
2021/05/31 09:45:48;;;;;;;6.45;3.70;;;;;;;20.20;35.90;96706.09;5052680;28;20060;-70
2021/05/31 09:48:15;;;;;;;6.20;3.67;;;;;;;20.26;34.99;96704.66;5052223;28;20052;-70
2021/05/31 09:50:42;;;;;;;5.47;3.50;;;;;;;20.32;34.86;96703.16;5052439;28;20065;-70
2021/05/31 09:53:09;;;;;;;7.95;3.40;;;;;;;20.17;35.38;96702.13;5052038;28;20048;-70
2021/05/31 09:55:38;;;;;;;8.45;3.25;;;;;;;20.20;35.04;96700.56;5052508;28;20132;-70
2021/05/31 09:58:10;;;;;;;4.28;3.53;;;;;;;19.92;31.33;96696.22;5051992;28;20497;-70
2021/05/31 10:00:37;;;;;;;5.25;3.40;;;;;;;19.92;39.23;96700.94;5037800;28;20520;-70
2021/05/31 10:03:22;;;;;;;4.45;3.42;;;;;;;20.11;37.68;96703.63;5052120;28;20123;-70
2021/05/31 10:05:52;;;;;;;5.28;3.08;;;;;;;20.28;36.48;96707.81;5052513;28;20037;-70
2021/05/31 10:10:59;;;;;;;4.28;3.00;;;;;;;20.27;32.31;96695.16;5052763;28;20073;-69
2021/05/31 10:13:28;;;;;;;5.15;3.60;;;;;;;20.34;34.10;96698.81;5051704;28;20106;-70
2021/05/31 10:15:55;;;;;;;4.10;2.88;;;;;;;20.46;33.87;96692.28;5052033;28;20392;-69
2021/05/31 10:18:21;;;;;;;4.10;3.35;;;;;;;20.57;32.63;96690.50;5051442;28;20052;-70
2021/05/31 10:20:47;;;;;;;7.13;3.65;;;;;;;20.56;34.02;96691.66;5052153;28;20124;-70
2021/05/31 10:23:15;;;;;;;4.07;3.03;;;;;;;20.59;35.95;96692.88;5051525;28;20397;-70
2021/05/31 10:25:45;;;;;;;5.63;3.08;;;;;;;20.55;31.48;96687.28;5051635;28;20048;-70
2021/05/31 10:28:14;;;;;;;6.10;3.20;;;;;;;20.50;33.15;96687.63;5051309;28;20073;-70
2021/05/31 10:30:43;;;;;;;4.38;3.42;;;;;;;20.50;33.71;96684.84;5037062;28;20041;-70
2021/05/31 10:33:13;;;;;;;4.13;3.22;;;;;;;20.41;31.18;96691.78;5051460;28;20071;-70
2021/05/31 10:35:39;;;;;;;4.10;3.03;;;;;;;20.31;32.65;96691.28;5051749;28;20090;-70
2021/05/31 10:38:10;;;;;;;3.80;2.80;;;;;;;20.34;32.82;96685.00;5051410;28;20099;-71
2021/05/31 10:40:41;;;;;;;4.20;3.28;;;;;;;20.39;32.53;96685.84;5051648;28;20167;-70
2021/05/31 10:43:09;;;;;;;4.72;3.50;;;;;;;20.46;36.01;96692.28;5051316;28;20088;-70
2021/05/31 10:45:36;;;;;;;4.20;3.42;;;;;;;20.53;32.83;96684.13;5051772;28;20566;-70
2021/05/31 10:48:10;;;;;;;3.28;2.80;;;;;;;20.57;33.30;96676.66;5051081;28;20048;-70
2021/05/31 10:50:38;;;;;;;4.15;3.38;;;;;;;20.68;33.80;96676.00;5051100;28;20485;-70
2021/05/31 10:53:08;;;;;;;5.55;2.90;;;;;;;20.71;33.58;96676.03;5050934;28;20499;-70
2021/05/31 10:55:34;;;;;;;4.45;3.30;;;;;;;20.70;31.19;96673.66;5051336;28;20064;-70
2021/05/31 10:58:00;;;;;;;6.15;2.95;;;;;;;20.63;34.66;96676.34;5051505;28;20041;-70
2021/05/31 11:00:29;;;;;;;3.40;2.58;;;;;;;20.49;34.14;96680.50;5036269;28;20097;-70
2021/05/31 11:03:08;;;;;;;6.85;2.95;;;;;;;20.37;37.02;96683.47;5051418;28;20041;-70
2021/05/31 11:05:37;;;;;;;4.38;3.20;;;;;;;20.45;32.06;96676.06;5050528;28;20476;-70
2021/05/31 11:08:04;;;;;;;4.10;2.70;;;;;;;20.42;35.22;96674.84;5050509;28;20128;-70
2021/05/31 11:10:32;;;;;;;5.32;3.33;;;;;;;20.47;35.34;96676.53;5050580;28;20037;-70
2021/05/31 11:13:13;;;;;;;4.75;3.10;;;;;;;20.48;32.35;96678.91;5050853;28;20041;-70
2021/05/31 11:15:39;;;;;;;6.30;3.17;;;;;;;20.32;33.64;96669.97;5050880;28;20132;-70
2021/05/31 11:18:07;;;;;;;4.05;2.83;;;;;;;20.38;33.20;96668.47;5050450;28;20041;-70
2021/05/31 11:20:33;;;;;;;6.35;3.00;;;;;;;20.49;36.27;96666.66;5050963;28;20049;-70
2021/05/31 11:23:02;;;;;;;5.85;3.20;;;;;;;20.68;36.11;96670.47;5050967;28;20462;-70
2021/05/31 11:25:30;;;;;;;4.75;3.03;;;;;;;20.56;31.54;96668.72;5050789;28;20049;-70
2021/05/31 11:27:58;;;;;;;3.92;3.17;;;;;;;20.57;35.72;96673.91;5051001;28;20128;-69
2021/05/31 11:30:27;;;;;;;5.05;3.03;;;;;;;20.54;34.65;96671.88;5048693;28;20486;-69
2021/05/31 11:32:55;;;;;;;4.32;2.72;;;;;;;20.62;34.73;96671.94;5050933;28;20052;-70
2021/05/31 11:35:23;;;;;;;7.55;2.78;;;;;;;20.55;34.63;96673.47;5050320;28;20464;-70
2021/05/31 11:37:51;;;;;;;4.22;2.55;;;;;;;20.30;33.16;96672.28;5051166;28;20045;-69
2021/05/31 11:40:21;;;;;;;5.70;2.53;;;;;;;20.19;33.03;96665.81;5050270;28;20076;-70
2021/05/31 11:42:49;;;;;;;3.35;2.40;;;;;;;20.28;32.47;96658.84;5051213;28;20065;-70
2021/05/31 11:45:18;;;;;;;3.63;2.25;;;;;;;20.31;34.38;96662.84;5050445;28;20534;-69